createdAt,value
2022-10-18T00:00:00.000Z,9.38
2022-10-18T00:15:00.000Z,9.47
2022-10-18T00:30:00.000Z,9.8
2022-10-18T00:45:00.000Z,9.87
2022-10-18T01:00:00.000Z,9.24
2022-10-18T01:15:00.000Z,9.24
2022-10-18T01:30:00.000Z,9.04
2022-10-18T01:45:00.000Z,9.67
2022-10-18T02:00:00.000Z,8.98
2022-10-18T02:15:00.000Z,8.89
2022-10-18T02:30:00.000Z,9.44
2022-10-18T02:45:00.000Z,9.55
2022-10-18T03:00:00.000Z,9.74
2022-10-18T03:15:00.000Z,10.13
2022-10-18T03:30:00.000Z,10.08
2022-10-18T03:45:00.000Z,9.84
2022-10-18T04:00:00.000Z,10.06
2022-10-18T04:15:00.000Z,9.93
2022-10-18T04:30:00.000Z,10.79
2022-10-18T04:45:00.000Z,10.46
2022-10-18T05:00:00.000Z,12.88
2022-10-18T05:15:00.000Z,11.11
2022-10-18T05:30:00.000Z,11.54
2022-10-18T05:45:00.000Z,12.4
2022-10-18T06:00:00.000Z,12.75
2022-10-18T06:15:00.000Z,13.34
2022-10-18T06:30:00.000Z,10.76
2022-10-18T06:45:00.000Z,9.88
2022-10-18T07:00:00.000Z,7.74
2022-10-18T07:15:00.000Z,9.12
2022-10-18T07:30:00.000Z,9.81
2022-10-18T07:45:00.000Z,9.24
2022-10-18T08:00:00.000Z,7.36
2022-10-18T08:15:00.000Z,6.95
2022-10-18T08:30:00.000Z,6.93
2022-10-18T08:45:00.000Z,7.09
2022-10-18T09:00:00.000Z,6.88
2022-10-18T09:15:00.000Z,6.93
2022-10-18T09:30:00.000Z,6.67
2022-10-18T09:45:00.000Z,6.71
2022-10-18T10:00:00.000Z,7.11
2022-10-18T10:15:00.000Z,7.01
2022-10-18T10:30:00.000Z,6.61
2022-10-18T10:45:00.000Z,6.85
2022-10-18T11:00:00.000Z,7.2
2022-10-18T11:15:00.000Z,7.08
2022-10-18T11:30:00.000Z,7.19
2022-10-18T11:45:00.000Z,7.15
2022-10-18T12:00:00.000Z,7.08
2022-10-18T12:15:00.000Z,7.18
2022-10-18T12:30:00.000Z,7.11
2022-10-18T12:45:00.000Z,7.2
2022-10-18T13:00:00.000Z,7.25
2022-10-18T13:15:00.000Z,7.47
2022-10-18T13:30:00.000Z,7.47
2022-10-18T13:45:00.000Z,7.71
2022-10-18T14:00:00.000Z,7.79
2022-10-18T14:15:00.000Z,8.06
2022-10-18T14:30:00.000Z,7.8
2022-10-18T14:45:00.000Z,9.27
2022-10-18T15:00:00.000Z,8.24
2022-10-18T15:15:00.000Z,8.39
2022-10-18T15:30:00.000Z,15.08
2022-10-18T15:45:00.000Z,14.47
2022-10-18T16:00:00.000Z,11.28
2022-10-18T16:15:00.000Z,10.28
2022-10-18T16:30:00.000Z,11.81
2022-10-18T16:45:00.000Z,10.69
2022-10-18T17:00:00.000Z,15.44
2022-10-18T17:15:00.000Z,14.68
2022-10-18T17:30:00.000Z,13.76
2022-10-18T17:45:00.000Z,13.81
2022-10-18T18:00:00.000Z,14.87
2022-10-18T18:15:00.000Z,14.48
2022-10-18T18:30:00.000Z,14.44
2022-10-18T18:45:00.000Z,17.78
2022-10-18T19:00:00.000Z,14.88
2022-10-18T19:15:00.000Z,13.27
2022-10-18T19:30:00.000Z,14.33
2022-10-18T19:45:00.000Z,15.42
2022-10-18T20:00:00.000Z,15.2
2022-10-18T20:15:00.000Z,14.89
2022-10-18T20:30:00.000Z,14.33
2022-10-18T20:45:00.000Z,15.04
2022-10-18T21:00:00.000Z,15.48
2022-10-18T21:15:00.000Z,16
2022-10-18T21:30:00.000Z,15.96
2022-10-18T21:45:00.000Z,16.06
2022-10-18T22:00:00.000Z,16.32
2022-10-18T22:15:00.000Z,16.71
2022-10-18T22:30:00.000Z,15.92
2022-10-18T22:45:00.000Z,17.62
2022-10-18T23:00:00.000Z,16.32
2022-10-18T23:15:00.000Z,16.4
2022-10-18T23:30:00.000Z,16.69
2022-10-18T23:45:00.000Z,16.29
